Flight Track Log - Related Links

Times and Time Zones

All times are in EDT time to prevent confusion due to time zone crossing. See the SWA718 flight status page for this flight to view local times or setup timezone preferences in your user account.

Time Position Orientation Groundspeed Altitude Reporting Facility
EDT Latitude Longitude Course Direction KTS MPH feet Rate Location/Type
Fri 11:42:38 PM 41.7667 -87.8500 246° West 183 211 3,100  Level Chicago TRACON
Fri 11:43:09 PM 41.7542 -87.8825 243° Southwest 180 207 2,900 522 Descending Chicago Center
Fri 11:44:10 PM 41.7456 -87.9475 260° West 193 222 3,900 541 Climbing Chicago Center
Fri 11:45:11 PM 41.7519 -88.0461 275° West 216 249 4,000 590 Climbing Chicago Center
Fri 11:46:12 PM 41.7561 -88.1297 274° West 223 257 5,100 2,508 Climbing Chicago Center
Fri 11:47:13 PM 41.7606 -88.2192 274° West 237 273 9,100 3,344 Climbing Chicago Center
Fri 11:48:14 PM 41.7678 -88.3128 276° West 253 291 11,900 1,426 Climbing Chicago Center
Fri 11:49:15 PM 41.7731 -88.4042 274° West 250 288 12,000 393 Climbing Chicago Center
Fri 11:50:16 PM 41.7786 -88.5022 274° West 262 302 12,700 1,967 Climbing Chicago Center
Fri 11:51:17 PM 41.7864 -88.6244 275° West 324 373 16,000 3,268 Climbing Chicago Center
Fri 11:52:19 PM 41.7778 -88.7511 265° West 346 398 19,400 3,098 Climbing Chicago Center
Fri 11:53:19 PM 41.7719 -88.8853 267° West 360 414 22,300 3,025 Climbing Chicago Center
Fri 11:54:20 PM 41.7806 -89.0539 274° West 388 447 25,500 2,902 Climbing Chicago Center
Fri 11:55:21 PM 41.7961 -89.1989 278° West 394 453 28,200 2,607 Climbing Chicago Center
Fri 11:56:22 PM 41.8100 -89.3414 277° West 388 447 30,800 2,311 Climbing Chicago Center
Fri 11:57:23 PM 41.8244 -89.4817 278° West 381 438 32,900 1,525 Climbing Chicago Center
Fri 11:58:24 PM 41.8253 -89.6272 270° West 395 455 33,900 1,279 Climbing Chicago Center
Fri 11:59:25 PM 41.8200 -89.7794 267° West 409 471 35,500 1,033 Climbing Chicago Center
Sat 12:00:26 AM 41.8156 -89.9375 268° West 414 476 36,000 246 Climbing Chicago Center
Sat 12:01:27 AM 41.8106 -90.0892 268° West 409 471 36,000  Level Chicago Center
Sat 12:02:28 AM 41.8064 -90.2378 268° West 403 464 36,000  Level Chicago Center
Sat 12:03:28 AM 41.7994 -90.3881 267° West 406 467 36,000  Level Chicago Center
Sat 12:04:29 AM 41.7908 -90.5703 266° West 424 488 36,000  Level Chicago Center
Sat 12:05:30 AM 41.7861 -90.6997 267° West 415 478 36,000  Level Chicago Center
Sat 12:06:31 AM 41.7794 -90.8522 267° West 411 473 36,000  Level Chicago Center
Sat 12:07:32 AM 41.7728 -91.0061 267° West 414 476 36,000  Level Chicago Center
Sat 12:08:33 AM 41.7647 -91.1875 267° West 409 471 36,000  Level Chicago Center
Sat 12:09:33 AM 41.7572 -91.3397 266° West 409 471 36,000  Level Chicago Center
Sat 12:10:34 AM 41.7500 -91.4917 266° West 411 473 36,000  Level Chicago Center
Sat 12:11:35 AM 41.7419 -91.6411 266° West 407 468 36,000  Level Chicago Center
Sat 12:12:36 AM 41.7347 -91.7939 266° West 413 475 36,000  Level Chicago Center
Sat 12:13:37 AM 41.7264 -91.9494 266° West 419 482 36,000  Level Chicago Center
Sat 12:14:38 AM 41.7111 -92.1011 262° West 416 479 36,000  Level Chicago Center
Sat 12:15:38 AM 41.6903 -92.2539 260° West 419 482 36,000  Level Chicago Center
Sat 12:16:39 AM 41.6700 -92.4050 260° West 416 479 36,000  Level Chicago Center
Sat 12:17:40 AM 41.6500 -92.5542 260° West 412 474 36,000  Level Chicago Center
Sat 12:18:41 AM 41.6292 -92.7033 259° West 411 473 36,000  Level Chicago Center
Sat 12:19:00 AM 41.6217 -92.7511 258° West 410 472 36,000  Level Minneapolis Center
Sat 12:20:01 AM 41.6014 -92.8986 260° West 409 471 36,000  Level Minneapolis Center
Sat 12:21:02 AM 41.5772 -93.0756 260° West 407 468 36,000  Level Minneapolis Center
Sat 12:22:03 AM 41.5561 -93.2236 259° West 409 471 36,000  Level Minneapolis Center
Sat 12:23:04 AM 41.5342 -93.3714 259° West 410 472 36,000  Level Minneapolis Center
Sat 12:24:04 AM 41.5125 -93.5194 259° West 411 473 36,000  Level Minneapolis Center
Sat 12:25:05 AM 41.4919 -93.6675 260° West 410 472 36,000 -98 Level Minneapolis Center
Sat 12:26:06 AM 41.4692 -93.8178 259° West 415 478 35,800 -1,279 Descending Minneapolis Center
Sat 12:27:07 AM 41.4478 -93.9642 259° West 411 473 33,400 -2,479 Descending Minneapolis Center
Sat 12:28:07 AM 41.4264 -94.1056 259° West 401 461 30,800 -2,479 Descending Minneapolis Center
Sat 12:29:08 AM 41.4044 -94.2475 258° West 382 440 28,400 -2,508 Descending Minneapolis Center
Sat 12:30:09 AM 41.3839 -94.3789 258° West 368 423 25,700 -2,529 Descending Minneapolis Center
Sat 12:31:09 AM 41.3653 -94.5058 259° West 356 410 23,300 -2,380 Descending Minneapolis Center
Sat 12:32:10 AM 41.3456 -94.6292 258° West 345 397 20,900 -2,508 Descending Minneapolis Center
Sat 12:33:11 AM 41.3394 -94.7756 267° West 329 379 18,200 -2,291 Descending Minneapolis Center
Sat 12:34:00 AM 41.3228 -94.8611 255° West 317 365 16,700 -2,037 Descending Minneapolis Center
Sat 12:35:00 AM 41.3039 -94.9719 257° West 306 352 14,500 -2,132 Descending Minneapolis Center
Sat 12:36:01 AM 41.2847 -95.0828 257° West 304 350 12,400 -1,983 Descending Minneapolis Center
Sat 12:37:01 AM 41.2719 -95.1953 261° West 290 334 10,500 -1,438 Descending Minneapolis Center
Sat 12:38:02 AM 41.2686 -95.2928 267° West 257 296 9,500 -1,426 Descending Minneapolis Center
Sat 12:39:03 AM 41.2664 -95.3819 268° West 239 275 7,600 -1,587 Descending Minneapolis Center
Sat 12:40:03 AM 41.2642 -95.4683 268° West 235 270 6,300 -1,370 Descending Minneapolis Center
Sat 12:41:10 AM 41.2622 -95.5600 268° West 229 264 4,700 -1,323 Descending Minneapolis Center
Sat 12:42:10 AM 41.2581 -95.6519 267° West 236 272 3,500 -893 Descending Minneapolis Center
Sat 12:43:11 AM 41.2569 -95.7297 269° West 207 238 2,900 -443 Descending Minneapolis Center
Sat 12:44:12 AM 41.2547 -95.7883 267° West 147 169 2,600 -397 Descending Minneapolis Center
Sat 12:45:12 AM 41.2558 -95.8381 272° West 119 137 2,100 -595 Descending Minneapolis Center
Sat 12:46:13 AM 41.2747 -95.8719 307° West 114 131 1,400 -520 Descending Minneapolis Center
Sat 12:47:19 AM 41.3022 -95.8958 327° Northwest 130 150 1,000 -364 Descending Minneapolis Center

Login

Don't have an account? Register now (free) for customized features, flight alerts, and more!